sensor_id;sensor_type;location;lat;lon;timestamp;P1;durP1;ratioP1;P2;durP2;ratioP2
71366;SDS011;60030;52.274;8.040;2023-03-15T00:01:58;4.37;;;1.30;;
71366;SDS011;60030;52.274;8.040;2023-03-15T00:04:25;7.47;;;1.57;;
71366;SDS011;60030;52.274;8.040;2023-03-15T00:06:53;7.30;;;1.77;;
71366;SDS011;60030;52.274;8.040;2023-03-15T00:09:20;7.63;;;1.60;;
71366;SDS011;60030;52.274;8.040;2023-03-15T00:11:48;7.40;;;1.97;;
71366;SDS011;60030;52.274;8.040;2023-03-15T00:14:17;7.67;;;1.60;;
71366;SDS011;60030;52.274;8.040;2023-03-15T00:16:44;2.77;;;1.47;;
71366;SDS011;60030;52.274;8.040;2023-03-15T00:19:11;5.30;;;1.70;;
71366;SDS011;60030;52.274;8.040;2023-03-15T00:21:38;8.83;;;1.50;;
71366;SDS011;60030;52.274;8.040;2023-03-15T00:24:07;5.03;;;1.60;;
71366;SDS011;60030;52.274;8.040;2023-03-15T00:26:35;6.07;;;1.57;;
71366;SDS011;60030;52.274;8.040;2023-03-15T00:29:03;7.80;;;1.80;;
71366;SDS011;60030;52.274;8.040;2023-03-15T00:31:32;7.67;;;1.70;;
71366;SDS011;60030;52.274;8.040;2023-03-15T00:34:00;6.87;;;1.63;;
71366;SDS011;60030;52.274;8.040;2023-03-15T00:36:27;4.67;;;1.70;;
71366;SDS011;60030;52.274;8.040;2023-03-15T00:38:54;6.47;;;1.80;;
71366;SDS011;60030;52.274;8.040;2023-03-15T00:41:22;6.10;;;1.37;;
71366;SDS011;60030;52.274;8.040;2023-03-15T00:43:49;6.70;;;1.97;;
71366;SDS011;60030;52.274;8.040;2023-03-15T00:46:17;5.20;;;1.17;;
71366;SDS011;60030;52.274;8.040;2023-03-15T00:48:47;6.27;;;1.60;;
71366;SDS011;60030;52.274;8.040;2023-03-15T00:51:15;1.70;;;1.20;;
71366;SDS011;60030;52.274;8.040;2023-03-15T00:53:44;4.53;;;1.23;;
71366;SDS011;60030;52.274;8.040;2023-03-15T00:56:13;7.00;;;2.00;;
71366;SDS011;60030;52.274;8.040;2023-03-15T00:58:41;7.47;;;1.87;;
71366;SDS011;60030;52.274;8.040;2023-03-15T01:01:09;10.57;;;2.00;;
71366;SDS011;60030;52.274;8.040;2023-03-15T01:03:38;3.20;;;1.50;;
71366;SDS011;60030;52.274;8.040;2023-03-15T01:06:08;8.57;;;2.30;;
71366;SDS011;60030;52.274;8.040;2023-03-15T01:08:40;8.90;;;1.80;;
71366;SDS011;60030;52.274;8.040;2023-03-15T01:11:09;3.07;;;1.30;;
71366;SDS011;60030;52.274;8.040;2023-03-15T01:13:38;7.30;;;1.70;;
71366;SDS011;60030;52.274;8.040;2023-03-15T01:16:06;8.07;;;2.57;;
71366;SDS011;60030;52.274;8.040;2023-03-15T01:18:34;6.80;;;2.33;;
71366;SDS011;60030;52.274;8.040;2023-03-15T01:21:04;3.63;;;1.90;;
71366;SDS011;60030;52.274;8.040;2023-03-15T01:23:33;5.37;;;2.13;;
71366;SDS011;60030;52.274;8.040;2023-03-15T01:26:00;7.40;;;1.93;;
71366;SDS011;60030;52.274;8.040;2023-03-15T01:28:28;7.77;;;2.10;;
71366;SDS011;60030;52.274;8.040;2023-03-15T01:30:55;9.60;;;2.10;;
71366;SDS011;60030;52.274;8.040;2023-03-15T01:33:23;5.83;;;1.60;;
71366;SDS011;60030;52.274;8.040;2023-03-15T01:35:56;8.40;;;2.10;;
71366;SDS011;60030;52.274;8.040;2023-03-15T01:38:25;6.13;;;1.90;;
71366;SDS011;60030;52.274;8.040;2023-03-15T01:40:54;5.60;;;1.80;;
71366;SDS011;60030;52.274;8.040;2023-03-15T01:43:21;3.50;;;1.70;;
71366;SDS011;60030;52.274;8.040;2023-03-15T01:45:53;7.83;;;2.03;;
71366;SDS011;60030;52.274;8.040;2023-03-15T01:48:38;5.93;;;2.13;;
71366;SDS011;60030;52.274;8.040;2023-03-15T01:51:10;2.93;;;1.70;;
71366;SDS011;60030;52.274;8.040;2023-03-15T01:53:42;3.47;;;2.10;;
71366;SDS011;60030;52.274;8.040;2023-03-15T01:56:15;3.50;;;1.63;;
71366;SDS011;60030;52.274;8.040;2023-03-15T01:58:43;5.10;;;1.70;;
71366;SDS011;60030;52.274;8.040;2023-03-15T02:01:11;5.63;;;1.80;;
71366;SDS011;60030;52.274;8.040;2023-03-15T02:03:43;3.93;;;1.60;;
71366;SDS011;60030;52.274;8.040;2023-03-15T02:06:15;2.60;;;1.57;;
71366;SDS011;60030;52.274;8.040;2023-03-15T02:08:50;4.10;;;1.70;;
71366;SDS011;60030;52.274;8.040;2023-03-15T02:11:23;3.50;;;1.43;;
71366;SDS011;60030;52.274;8.040;2023-03-15T02:13:53;2.47;;;1.63;;
71366;SDS011;60030;52.274;8.040;2023-03-15T02:16:21;3.57;;;1.37;;
71366;SDS011;60030;52.274;8.040;2023-03-15T02:18:55;3.93;;;1.60;;
71366;SDS011;60030;52.274;8.040;2023-03-15T02:21:29;3.77;;;1.57;;
71366;SDS011;60030;52.274;8.040;2023-03-15T02:24:09;2.33;;;1.60;;
71366;SDS011;60030;52.274;8.040;2023-03-15T02:26:52;2.37;;;1.40;;
71366;SDS011;60030;52.274;8.040;2023-03-15T02:29:22;1.93;;;1.57;;
71366;SDS011;60030;52.274;8.040;2023-03-15T02:31:51;3.53;;;1.70;;
71366;SDS011;60030;52.274;8.040;2023-03-15T02:34:23;3.17;;;1.57;;
71366;SDS011;60030;52.274;8.040;2023-03-15T02:36:51;2.43;;;1.73;;
71366;SDS011;60030;52.274;8.040;2023-03-15T02:39:19;2.13;;;1.80;;
71366;SDS011;60030;52.274;8.040;2023-03-15T02:41:50;2.07;;;1.80;;
71366;SDS011;60030;52.274;8.040;2023-03-15T02:44:20;4.43;;;1.93;;
71366;SDS011;60030;52.274;8.040;2023-03-15T02:46:52;2.63;;;1.90;;
71366;SDS011;60030;52.274;8.040;2023-03-15T02:49:22;2.53;;;2.10;;
71366;SDS011;60030;52.274;8.040;2023-03-15T02:51:53;2.53;;;1.93;;
71366;SDS011;60030;52.274;8.040;2023-03-15T02:54:20;2.97;;;2.17;;
71366;SDS011;60030;52.274;8.040;2023-03-15T02:56:47;2.50;;;1.90;;
71366;SDS011;60030;52.274;8.040;2023-03-15T02:59:14;3.70;;;2.00;;
71366;SDS011;60030;52.274;8.040;2023-03-15T03:01:43;3.73;;;1.90;;
71366;SDS011;60030;52.274;8.040;2023-03-15T03:04:11;3.00;;;2.20;;
71366;SDS011;60030;52.274;8.040;2023-03-15T03:06:38;3.47;;;2.17;;
71366;SDS011;60030;52.274;8.040;2023-03-15T03:09:08;5.30;;;1.87;;
71366;SDS011;60030;52.274;8.040;2023-03-15T03:11:35;2.50;;;1.97;;
71366;SDS011;60030;52.274;8.040;2023-03-15T03:14:03;4.47;;;2.00;;
71366;SDS011;60030;52.274;8.040;2023-03-15T03:16:30;2.50;;;1.90;;
71366;SDS011;60030;52.274;8.040;2023-03-15T03:18:59;3.37;;;2.23;;
71366;SDS011;60030;52.274;8.040;2023-03-15T03:21:29;4.77;;;2.00;;
71366;SDS011;60030;52.274;8.040;2023-03-15T03:23:56;4.17;;;2.00;;
71366;SDS011;60030;52.274;8.040;2023-03-15T03:26:23;3.10;;;2.03;;
71366;SDS011;60030;52.274;8.040;2023-03-15T03:28:53;3.47;;;1.90;;
71366;SDS011;60030;52.274;8.040;2023-03-15T03:31:22;4.00;;;2.20;;
71366;SDS011;60030;52.274;8.040;2023-03-15T03:33:51;4.13;;;2.40;;
71366;SDS011;60030;52.274;8.040;2023-03-15T03:36:21;3.87;;;2.33;;
71366;SDS011;60030;52.274;8.040;2023-03-15T03:38:49;4.73;;;2.30;;
71366;SDS011;60030;52.274;8.040;2023-03-15T03:41:19;3.70;;;2.50;;
71366;SDS011;60030;52.274;8.040;2023-03-15T03:43:46;2.87;;;2.20;;
71366;SDS011;60030;52.274;8.040;2023-03-15T03:46:14;5.90;;;2.50;;
71366;SDS011;60030;52.274;8.040;2023-03-15T03:48:46;3.47;;;2.20;;
71366;SDS011;60030;52.274;8.040;2023-03-15T03:51:13;2.57;;;2.00;;
71366;SDS011;60030;52.274;8.040;2023-03-15T03:53:41;6.07;;;2.37;;
71366;SDS011;60030;52.274;8.040;2023-03-15T03:56:09;3.10;;;2.40;;
71366;SDS011;60030;52.274;8.040;2023-03-15T03:58:36;4.77;;;2.23;;
71366;SDS011;60030;52.274;8.040;2023-03-15T04:01:14;3.17;;;2.23;;
71366;SDS011;60030;52.274;8.040;2023-03-15T04:03:44;6.83;;;2.80;;
71366;SDS011;60030;52.274;8.040;2023-03-15T04:06:14;4.17;;;2.70;;
71366;SDS011;60030;52.274;8.040;2023-03-15T04:08:45;6.07;;;2.40;;
71366;SDS011;60030;52.274;8.040;2023-03-15T04:11:17;5.47;;;2.50;;
71366;SDS011;60030;52.274;8.040;2023-03-15T04:13:52;5.60;;;2.97;;
71366;SDS011;60030;52.274;8.040;2023-03-15T04:16:20;6.07;;;2.80;;
71366;SDS011;60030;52.274;8.040;2023-03-15T04:18:59;5.87;;;2.53;;
71366;SDS011;60030;52.274;8.040;2023-03-15T04:21:29;3.50;;;2.97;;
71366;SDS011;60030;52.274;8.040;2023-03-15T04:24:07;2.83;;;2.43;;
71366;SDS011;60030;52.274;8.040;2023-03-15T04:26:58;4.57;;;2.17;;
71366;SDS011;60030;52.274;8.040;2023-03-15T04:29:44;5.80;;;2.73;;
71366;SDS011;60030;52.274;8.040;2023-03-15T04:32:26;5.10;;;2.73;;
71366;SDS011;60030;52.274;8.040;2023-03-15T04:35:16;4.33;;;2.53;;
71366;SDS011;60030;52.274;8.040;2023-03-15T04:38:02;5.57;;;2.60;;
71366;SDS011;60030;52.274;8.040;2023-03-15T04:40:57;5.63;;;2.93;;
71366;SDS011;60030;52.274;8.040;2023-03-15T04:43:46;5.70;;;3.00;;
71366;SDS011;60030;52.274;8.040;2023-03-15T04:46:32;5.23;;;3.37;;
71366;SDS011;60030;52.274;8.040;2023-03-15T04:49:06;4.10;;;2.37;;
71366;SDS011;60030;52.274;8.040;2023-03-15T04:51:50;7.63;;;3.10;;
71366;SDS011;60030;52.274;8.040;2023-03-15T04:54:26;6.43;;;2.90;;
71366;SDS011;60030;52.274;8.040;2023-03-15T04:57:05;5.90;;;3.30;;
71366;SDS011;60030;52.274;8.040;2023-03-15T04:59:43;5.20;;;3.00;;
71366;SDS011;60030;52.274;8.040;2023-03-15T05:02:36;6.83;;;2.93;;
71366;SDS011;60030;52.274;8.040;2023-03-15T05:05:22;5.33;;;3.00;;
71366;SDS011;60030;52.274;8.040;2023-03-15T05:08:09;4.73;;;3.23;;
71366;SDS011;60030;52.274;8.040;2023-03-15T05:10:57;8.00;;;3.40;;
71366;SDS011;60030;52.274;8.040;2023-03-15T05:13:44;4.97;;;3.33;;
71366;SDS011;60030;52.274;8.040;2023-03-15T05:16:32;4.73;;;3.23;;
71366;SDS011;60030;52.274;8.040;2023-03-15T05:19:11;5.27;;;3.27;;
71366;SDS011;60030;52.274;8.040;2023-03-15T05:21:57;4.07;;;3.30;;
71366;SDS011;60030;52.274;8.040;2023-03-15T05:24:47;5.73;;;3.60;;
71366;SDS011;60030;52.274;8.040;2023-03-15T05:27:31;6.17;;;4.00;;
71366;SDS011;60030;52.274;8.040;2023-03-15T05:30:18;7.27;;;3.87;;
71366;SDS011;60030;52.274;8.040;2023-03-15T05:33:04;4.77;;;3.87;;
71366;SDS011;60030;52.274;8.040;2023-03-15T05:35:57;5.90;;;3.40;;
71366;SDS011;60030;52.274;8.040;2023-03-15T05:38:42;6.20;;;3.40;;
71366;SDS011;60030;52.274;8.040;2023-03-15T05:41:25;9.77;;;4.43;;
71366;SDS011;60030;52.274;8.040;2023-03-15T05:44:17;7.77;;;4.03;;
71366;SDS011;60030;52.274;8.040;2023-03-15T05:47:04;8.33;;;3.83;;
71366;SDS011;60030;52.274;8.040;2023-03-15T05:49:58;7.83;;;4.47;;
71366;SDS011;60030;52.274;8.040;2023-03-15T05:52:36;6.10;;;3.63;;
71366;SDS011;60030;52.274;8.040;2023-03-15T05:55:38;5.10;;;4.03;;
71366;SDS011;60030;52.274;8.040;2023-03-15T05:58:38;9.93;;;4.60;;
71366;SDS011;60030;52.274;8.040;2023-03-15T06:01:23;6.67;;;3.50;;
71366;SDS011;60030;52.274;8.040;2023-03-15T06:04:12;5.17;;;3.50;;
71366;SDS011;60030;52.274;8.040;2023-03-15T06:06:39;5.30;;;3.60;;
71366;SDS011;60030;52.274;8.040;2023-03-15T06:09:08;6.00;;;4.03;;
71366;SDS011;60030;52.274;8.040;2023-03-15T06:11:35;10.00;;;4.10;;
71366;SDS011;60030;52.274;8.040;2023-03-15T06:14:03;6.30;;;3.47;;
71366;SDS011;60030;52.274;8.040;2023-03-15T06:16:43;4.83;;;3.53;;
71366;SDS011;60030;52.274;8.040;2023-03-15T06:19:12;8.37;;;3.97;;
71366;SDS011;60030;52.274;8.040;2023-03-15T06:21:39;9.90;;;4.10;;
71366;SDS011;60030;52.274;8.040;2023-03-15T06:24:20;8.43;;;4.27;;
71366;SDS011;60030;52.274;8.040;2023-03-15T06:26:47;7.53;;;4.17;;
71366;SDS011;60030;52.274;8.040;2023-03-15T06:29:15;7.23;;;3.67;;
71366;SDS011;60030;52.274;8.040;2023-03-15T06:31:46;10.50;;;3.97;;
71366;SDS011;60030;52.274;8.040;2023-03-15T06:34:15;7.57;;;3.83;;
71366;SDS011;60030;52.274;8.040;2023-03-15T06:36:43;7.90;;;4.03;;
71366;SDS011;60030;52.274;8.040;2023-03-15T06:39:10;9.17;;;3.70;;
71366;SDS011;60030;52.274;8.040;2023-03-15T06:41:38;6.20;;;4.23;;
71366;SDS011;60030;52.274;8.040;2023-03-15T06:44:11;7.33;;;3.90;;
71366;SDS011;60030;52.274;8.040;2023-03-15T06:46:40;9.53;;;4.53;;
71366;SDS011;60030;52.274;8.040;2023-03-15T06:49:07;9.83;;;4.10;;
71366;SDS011;60030;52.274;8.040;2023-03-15T06:51:36;7.73;;;4.27;;
71366;SDS011;60030;52.274;8.040;2023-03-15T06:54:03;7.77;;;4.00;;
71366;SDS011;60030;52.274;8.040;2023-03-15T06:56:33;12.33;;;4.70;;
71366;SDS011;60030;52.274;8.040;2023-03-15T06:59:01;7.67;;;4.90;;
71366;SDS011;60030;52.274;8.040;2023-03-15T07:01:28;9.43;;;4.30;;
71366;SDS011;60030;52.274;8.040;2023-03-15T07:03:56;9.67;;;4.83;;
71366;SDS011;60030;52.274;8.040;2023-03-15T07:06:23;10.60;;;4.63;;
71366;SDS011;60030;52.274;8.040;2023-03-15T07:08:53;7.70;;;4.23;;
71366;SDS011;60030;52.274;8.040;2023-03-15T07:11:20;8.33;;;4.07;;
71366;SDS011;60030;52.274;8.040;2023-03-15T07:13:47;8.10;;;4.13;;
71366;SDS011;60030;52.274;8.040;2023-03-15T07:16:14;6.73;;;3.90;;
71366;SDS011;60030;52.274;8.040;2023-03-15T07:18:41;12.73;;;4.13;;
71366;SDS011;60030;52.274;8.040;2023-03-15T07:21:09;9.47;;;4.70;;
71366;SDS011;60030;52.274;8.040;2023-03-15T07:23:36;6.50;;;4.90;;
71366;SDS011;60030;52.274;8.040;2023-03-15T07:26:04;6.80;;;4.00;;
71366;SDS011;60030;52.274;8.040;2023-03-15T07:28:31;8.17;;;3.87;;
71366;SDS011;60030;52.274;8.040;2023-03-15T07:30:59;9.87;;;5.33;;
71366;SDS011;60030;52.274;8.040;2023-03-15T07:33:28;6.67;;;3.93;;
71366;SDS011;60030;52.274;8.040;2023-03-15T07:35:56;7.73;;;4.13;;
71366;SDS011;60030;52.274;8.040;2023-03-15T07:38:23;4.20;;;2.90;;
71366;SDS011;60030;52.274;8.040;2023-03-15T07:40:53;4.57;;;3.27;;
71366;SDS011;60030;52.274;8.040;2023-03-15T07:43:21;5.67;;;3.67;;
71366;SDS011;60030;52.274;8.040;2023-03-15T07:45:59;11.37;;;3.47;;
71366;SDS011;60030;52.274;8.040;2023-03-15T07:48:26;5.20;;;3.07;;
71366;SDS011;60030;52.274;8.040;2023-03-15T07:50:54;10.13;;;3.27;;
71366;SDS011;60030;52.274;8.040;2023-03-15T07:53:22;9.57;;;3.10;;
71366;SDS011;60030;52.274;8.040;2023-03-15T07:55:49;9.93;;;3.87;;
71366;SDS011;60030;52.274;8.040;2023-03-15T07:58:17;10.40;;;3.40;;
71366;SDS011;60030;52.274;8.040;2023-03-15T08:00:45;5.27;;;2.40;;
71366;SDS011;60030;52.274;8.040;2023-03-15T08:03:12;6.93;;;3.13;;
71366;SDS011;60030;52.274;8.040;2023-03-15T08:05:39;8.13;;;2.53;;
71366;SDS011;60030;52.274;8.040;2023-03-15T08:08:06;7.03;;;3.00;;
71366;SDS011;60030;52.274;8.040;2023-03-15T08:10:34;8.13;;;3.27;;
71366;SDS011;60030;52.274;8.040;2023-03-15T08:13:01;5.63;;;3.10;;
71366;SDS011;60030;52.274;8.040;2023-03-15T08:15:28;5.87;;;2.60;;
71366;SDS011;60030;52.274;8.040;2023-03-15T08:17:56;11.27;;;2.90;;
71366;SDS011;60030;52.274;8.040;2023-03-15T08:20:24;3.93;;;2.30;;
71366;SDS011;60030;52.274;8.040;2023-03-15T08:22:52;5.73;;;2.40;;
71366;SDS011;60030;52.274;8.040;2023-03-15T08:25:19;4.87;;;2.77;;
71366;SDS011;60030;52.274;8.040;2023-03-15T08:27:48;4.63;;;2.30;;
71366;SDS011;60030;52.274;8.040;2023-03-15T08:30:16;7.10;;;2.20;;
71366;SDS011;60030;52.274;8.040;2023-03-15T08:32:45;5.03;;;2.43;;
71366;SDS011;60030;52.274;8.040;2023-03-15T08:35:15;11.03;;;3.50;;
71366;SDS011;60030;52.274;8.040;2023-03-15T08:37:42;7.50;;;3.33;;
71366;SDS011;60030;52.274;8.040;2023-03-15T08:40:11;10.50;;;3.27;;
71366;SDS011;60030;52.274;8.040;2023-03-15T08:42:39;6.97;;;3.23;;
71366;SDS011;60030;52.274;8.040;2023-03-15T08:45:06;5.90;;;2.93;;
71366;SDS011;60030;52.274;8.040;2023-03-15T08:47:35;6.60;;;4.13;;
71366;SDS011;60030;52.274;8.040;2023-03-15T08:50:02;9.63;;;3.10;;
71366;SDS011;60030;52.274;8.040;2023-03-15T08:52:32;7.90;;;3.03;;
71366;SDS011;60030;52.274;8.040;2023-03-15T08:55:00;8.57;;;2.80;;
71366;SDS011;60030;52.274;8.040;2023-03-15T08:57:29;6.13;;;2.90;;
71366;SDS011;60030;52.274;8.040;2023-03-15T08:59:57;7.73;;;2.70;;
71366;SDS011;60030;52.274;8.040;2023-03-15T09:02:26;7.27;;;2.50;;
71366;SDS011;60030;52.274;8.040;2023-03-15T09:04:53;6.43;;;2.30;;
71366;SDS011;60030;52.274;8.040;2023-03-15T09:07:20;7.03;;;2.07;;
71366;SDS011;60030;52.274;8.040;2023-03-15T09:09:48;6.30;;;2.30;;
71366;SDS011;60030;52.274;8.040;2023-03-15T09:12:18;4.33;;;1.70;;
71366;SDS011;60030;52.274;8.040;2023-03-15T09:14:46;5.93;;;2.30;;
71366;SDS011;60030;52.274;8.040;2023-03-15T09:17:13;4.10;;;1.80;;
71366;SDS011;60030;52.274;8.040;2023-03-15T09:19:40;4.83;;;1.63;;
71366;SDS011;60030;52.274;8.040;2023-03-15T09:22:07;4.77;;;1.50;;
71366;SDS011;60030;52.274;8.040;2023-03-15T09:24:36;5.63;;;2.00;;
71366;SDS011;60030;52.274;8.040;2023-03-15T09:27:04;4.73;;;1.67;;
71366;SDS011;60030;52.274;8.040;2023-03-15T09:29:32;6.00;;;1.77;;
71366;SDS011;60030;52.274;8.040;2023-03-15T09:31:59;5.50;;;1.93;;
71366;SDS011;60030;52.274;8.040;2023-03-15T09:34:26;4.57;;;1.40;;
71366;SDS011;60030;52.274;8.040;2023-03-15T09:36:54;5.17;;;1.67;;
71366;SDS011;60030;52.274;8.040;2023-03-15T09:39:21;3.97;;;1.27;;
71366;SDS011;60030;52.274;8.040;2023-03-15T09:41:49;6.57;;;1.60;;
71366;SDS011;60030;52.274;8.040;2023-03-15T09:44:23;4.07;;;1.40;;
71366;SDS011;60030;52.274;8.040;2023-03-15T09:47:07;5.13;;;1.47;;
71366;SDS011;60030;52.274;8.040;2023-03-15T09:49:44;2.27;;;1.07;;
71366;SDS011;60030;52.274;8.040;2023-03-15T09:52:19;3.47;;;1.40;;
71366;SDS011;60030;52.274;8.040;2023-03-15T09:54:52;4.57;;;1.40;;
71366;SDS011;60030;52.274;8.040;2023-03-15T09:57:23;6.07;;;1.13;;
71366;SDS011;60030;52.274;8.040;2023-03-15T09:59:57;5.30;;;1.43;;
71366;SDS011;60030;52.274;8.040;2023-03-15T10:02:26;7.13;;;1.00;;
71366;SDS011;60030;52.274;8.040;2023-03-15T10:04:55;3.97;;;1.20;;
71366;SDS011;60030;52.274;8.040;2023-03-15T10:07:25;3.70;;;1.40;;
71366;SDS011;60030;52.274;8.040;2023-03-15T10:09:53;6.33;;;1.40;;
71366;SDS011;60030;52.274;8.040;2023-03-15T10:12:25;3.67;;;1.13;;
71366;SDS011;60030;52.274;8.040;2023-03-15T10:14:58;7.63;;;1.33;;
71366;SDS011;60030;52.274;8.040;2023-03-15T10:17:38;5.10;;;1.20;;
71366;SDS011;60030;52.274;8.040;2023-03-15T10:20:14;6.13;;;1.30;;
71366;SDS011;60030;52.274;8.040;2023-03-15T10:22:44;6.60;;;1.63;;
71366;SDS011;60030;52.274;8.040;2023-03-15T10:25:18;4.00;;;1.10;;
71366;SDS011;60030;52.274;8.040;2023-03-15T10:27:51;2.23;;;1.07;;
71366;SDS011;60030;52.274;8.040;2023-03-15T10:30:23;6.90;;;1.00;;
71366;SDS011;60030;52.274;8.040;2023-03-15T10:32:53;6.37;;;1.47;;
71366;SDS011;60030;52.274;8.040;2023-03-15T10:35:23;5.33;;;1.30;;
71366;SDS011;60030;52.274;8.040;2023-03-15T10:37:50;3.70;;;1.30;;
71366;SDS011;60030;52.274;8.040;2023-03-15T10:43:16;6.43;;;1.63;;
71366;SDS011;60030;52.274;8.040;2023-03-15T10:45:48;4.30;;;1.30;;
71366;SDS011;60030;52.274;8.040;2023-03-15T10:48:25;3.00;;;1.17;;
71366;SDS011;60030;52.274;8.040;2023-03-15T10:50:53;4.97;;;1.20;;
71366;SDS011;60030;52.274;8.040;2023-03-15T10:53:21;4.13;;;1.00;;
71366;SDS011;60030;52.274;8.040;2023-03-15T10:55:56;5.53;;;1.47;;
71366;SDS011;60030;52.274;8.040;2023-03-15T10:58:26;8.40;;;1.30;;
71366;SDS011;60030;52.274;8.040;2023-03-15T11:01:00;1.87;;;1.00;;
71366;SDS011;60030;52.274;8.040;2023-03-15T11:03:31;2.73;;;1.17;;
71366;SDS011;60030;52.274;8.040;2023-03-15T11:06:00;6.93;;;1.20;;
71366;SDS011;60030;52.274;8.040;2023-03-15T11:08:35;2.37;;;1.00;;
71366;SDS011;60030;52.274;8.040;2023-03-15T11:11:04;3.70;;;0.90;;
71366;SDS011;60030;52.274;8.040;2023-03-15T11:13:32;3.27;;;1.23;;
71366;SDS011;60030;52.274;8.040;2023-03-15T11:16:02;3.97;;;1.33;;
71366;SDS011;60030;52.274;8.040;2023-03-15T11:18:33;4.03;;;1.40;;
71366;SDS011;60030;52.274;8.040;2023-03-15T11:21:02;5.03;;;0.57;;
71366;SDS011;60030;52.274;8.040;2023-03-15T11:23:33;1.10;;;0.70;;
71366;SDS011;60030;52.274;8.040;2023-03-15T11:26:02;1.17;;;0.70;;
71366;SDS011;60030;52.274;8.040;2023-03-15T11:28:31;3.70;;;1.00;;
71366;SDS011;60030;52.274;8.040;2023-03-15T11:31:03;3.43;;;0.97;;
71366;SDS011;60030;52.274;8.040;2023-03-15T11:33:36;3.17;;;0.90;;
71366;SDS011;60030;52.274;8.040;2023-03-15T11:36:11;2.47;;;0.80;;
71366;SDS011;60030;52.274;8.040;2023-03-15T11:38:41;2.67;;;0.80;;
71366;SDS011;60030;52.274;8.040;2023-03-15T11:41:11;3.77;;;0.70;;
71366;SDS011;60030;52.274;8.040;2023-03-15T11:43:47;2.47;;;0.97;;
71366;SDS011;60030;52.274;8.040;2023-03-15T11:46:25;4.47;;;0.97;;
71366;SDS011;60030;52.274;8.040;2023-03-15T11:48:56;2.70;;;1.40;;
71366;SDS011;60030;52.274;8.040;2023-03-15T11:51:30;2.63;;;0.70;;
71366;SDS011;60030;52.274;8.040;2023-03-15T11:54:04;3.53;;;0.80;;
71366;SDS011;60030;52.274;8.040;2023-03-15T11:56:47;2.57;;;1.10;;
71366;SDS011;60030;52.274;8.040;2023-03-15T11:59:20;2.80;;;1.00;;
71366;SDS011;60030;52.274;8.040;2023-03-15T12:01:53;3.07;;;0.80;;
71366;SDS011;60030;52.274;8.040;2023-03-15T12:07:35;3.07;;;1.30;;
71366;SDS011;60030;52.274;8.040;2023-03-15T12:10:28;3.10;;;0.80;;
71366;SDS011;60030;52.274;8.040;2023-03-15T12:12:59;2.43;;;0.77;;
71366;SDS011;60030;52.274;8.040;2023-03-15T12:15:43;2.60;;;1.37;;
71366;SDS011;60030;52.274;8.040;2023-03-15T12:18:16;2.70;;;0.97;;
71366;SDS011;60030;52.274;8.040;2023-03-15T12:20:51;4.93;;;0.97;;
71366;SDS011;60030;52.274;8.040;2023-03-15T12:23:33;4.27;;;0.70;;
71366;SDS011;60030;52.274;8.040;2023-03-15T12:26:04;4.93;;;0.90;;
71366;SDS011;60030;52.274;8.040;2023-03-15T12:28:35;2.97;;;0.87;;
71366;SDS011;60030;52.274;8.040;2023-03-15T12:31:04;4.70;;;0.97;;
71366;SDS011;60030;52.274;8.040;2023-03-15T12:33:43;1.97;;;0.73;;
71366;SDS011;60030;52.274;8.040;2023-03-15T12:36:25;3.37;;;0.70;;
71366;SDS011;60030;52.274;8.040;2023-03-15T12:38:59;2.00;;;0.73;;
71366;SDS011;60030;52.274;8.040;2023-03-15T12:41:33;4.50;;;0.73;;
71366;SDS011;60030;52.274;8.040;2023-03-15T12:44:18;4.50;;;1.13;;
71366;SDS011;60030;52.274;8.040;2023-03-15T12:46:54;4.47;;;0.90;;
71366;SDS011;60030;52.274;8.040;2023-03-15T12:49:28;4.23;;;0.90;;
71366;SDS011;60030;52.274;8.040;2023-03-15T12:51:58;5.23;;;1.20;;
71366;SDS011;60030;52.274;8.040;2023-03-15T12:54:29;3.17;;;1.10;;
71366;SDS011;60030;52.274;8.040;2023-03-15T12:57:00;3.57;;;0.80;;
71366;SDS011;60030;52.274;8.040;2023-03-15T12:59:32;1.70;;;0.53;;
71366;SDS011;60030;52.274;8.040;2023-03-15T13:02:23;2.63;;;1.10;;
71366;SDS011;60030;52.274;8.040;2023-03-15T13:04:59;2.77;;;0.83;;
71366;SDS011;60030;52.274;8.040;2023-03-15T13:07:31;4.33;;;0.80;;
71366;SDS011;60030;52.274;8.040;2023-03-15T13:10:19;5.67;;;1.20;;
71366;SDS011;60030;52.274;8.040;2023-03-15T13:12:55;1.87;;;0.93;;
71366;SDS011;60030;52.274;8.040;2023-03-15T13:15:30;1.67;;;0.67;;
71366;SDS011;60030;52.274;8.040;2023-03-15T13:18:03;1.97;;;0.80;;
71366;SDS011;60030;52.274;8.040;2023-03-15T13:20:46;1.50;;;0.80;;
71366;SDS011;60030;52.274;8.040;2023-03-15T13:23:19;1.90;;;0.60;;
71366;SDS011;60030;52.274;8.040;2023-03-15T13:25:53;2.23;;;0.87;;
71366;SDS011;60030;52.274;8.040;2023-03-15T13:28:30;2.63;;;1.00;;
71366;SDS011;60030;52.274;8.040;2023-03-15T13:31:09;5.13;;;0.80;;
71366;SDS011;60030;52.274;8.040;2023-03-15T13:33:38;4.57;;;0.90;;
71366;SDS011;60030;52.274;8.040;2023-03-15T13:36:10;1.67;;;0.83;;
71366;SDS011;60030;52.274;8.040;2023-03-15T13:38:41;3.20;;;0.87;;
71366;SDS011;60030;52.274;8.040;2023-03-15T13:41:17;3.63;;;0.60;;
71366;SDS011;60030;52.274;8.040;2023-03-15T13:43:45;3.47;;;0.80;;
71366;SDS011;60030;52.274;8.040;2023-03-15T13:46:14;3.17;;;0.70;;
71366;SDS011;60030;52.274;8.040;2023-03-15T13:48:43;4.63;;;0.80;;
71366;SDS011;60030;52.274;8.040;2023-03-15T13:51:16;5.77;;;0.90;;
71366;SDS011;60030;52.274;8.040;2023-03-15T13:53:47;4.70;;;1.00;;
71366;SDS011;60030;52.274;8.040;2023-03-15T13:56:17;5.10;;;0.80;;
71366;SDS011;60030;52.274;8.040;2023-03-15T13:58:52;2.47;;;0.77;;
71366;SDS011;60030;52.274;8.040;2023-03-15T14:01:20;6.60;;;1.07;;
71366;SDS011;60030;52.274;8.040;2023-03-15T14:03:51;2.40;;;1.00;;
71366;SDS011;60030;52.274;8.040;2023-03-15T14:06:24;2.93;;;0.93;;
71366;SDS011;60030;52.274;8.040;2023-03-15T14:08:53;1.90;;;0.73;;
71366;SDS011;60030;52.274;8.040;2023-03-15T14:11:32;1.57;;;0.80;;
71366;SDS011;60030;52.274;8.040;2023-03-15T14:14:02;3.80;;;0.90;;
71366;SDS011;60030;52.274;8.040;2023-03-15T14:16:44;2.93;;;0.60;;
71366;SDS011;60030;52.274;8.040;2023-03-15T14:19:16;1.40;;;0.90;;
71366;SDS011;60030;52.274;8.040;2023-03-15T14:21:47;3.97;;;0.70;;
71366;SDS011;60030;52.274;8.040;2023-03-15T14:24:19;4.13;;;1.30;;
71366;SDS011;60030;52.274;8.040;2023-03-15T14:26:52;3.27;;;1.93;;
71366;SDS011;60030;52.274;8.040;2023-03-15T14:29:24;5.30;;;2.50;;
71366;SDS011;60030;52.274;8.040;2023-03-15T14:31:57;3.03;;;1.10;;
71366;SDS011;60030;52.274;8.040;2023-03-15T14:34:30;2.07;;;0.93;;
71366;SDS011;60030;52.274;8.040;2023-03-15T14:37:01;2.40;;;0.80;;
71366;SDS011;60030;52.274;8.040;2023-03-15T14:39:37;3.47;;;0.70;;
71366;SDS011;60030;52.274;8.040;2023-03-15T14:42:08;2.43;;;0.70;;
71366;SDS011;60030;52.274;8.040;2023-03-15T14:44:36;2.33;;;0.60;;
71366;SDS011;60030;52.274;8.040;2023-03-15T14:47:05;1.23;;;0.43;;
71366;SDS011;60030;52.274;8.040;2023-03-15T14:49:37;2.47;;;0.80;;
71366;SDS011;60030;52.274;8.040;2023-03-15T14:52:05;2.30;;;0.60;;
71366;SDS011;60030;52.274;8.040;2023-03-15T14:54:33;2.03;;;1.13;;
71366;SDS011;60030;52.274;8.040;2023-03-15T14:57:00;2.07;;;0.70;;
71366;SDS011;60030;52.274;8.040;2023-03-15T14:59:27;2.37;;;0.73;;
71366;SDS011;60030;52.274;8.040;2023-03-15T15:01:55;1.73;;;0.60;;
71366;SDS011;60030;52.274;8.040;2023-03-15T15:04:25;2.97;;;0.80;;
71366;SDS011;60030;52.274;8.040;2023-03-15T15:06:58;3.57;;;0.70;;
71366;SDS011;60030;52.274;8.040;2023-03-15T15:09:28;2.23;;;0.60;;
71366;SDS011;60030;52.274;8.040;2023-03-15T15:11:56;3.47;;;0.50;;
71366;SDS011;60030;52.274;8.040;2023-03-15T15:14:23;1.43;;;0.47;;
71366;SDS011;60030;52.274;8.040;2023-03-15T15:16:50;2.77;;;0.87;;
71366;SDS011;60030;52.274;8.040;2023-03-15T15:19:17;1.43;;;0.53;;
71366;SDS011;60030;52.274;8.040;2023-03-15T15:21:44;1.33;;;0.60;;
71366;SDS011;60030;52.274;8.040;2023-03-15T15:24:12;3.23;;;0.87;;